sensor_id;sensor_type;location;lat;lon;timestamp;pressure;altitude;pressure_sealevel;temperature;humidity
6020;BME280;3038;51.122;6.840;2023-04-15T07:40:45;100666.34;;;12.30;58.02
6020;BME280;3038;51.122;6.840;2023-04-15T07:43:10;100680.53;;;12.06;59.63
6020;BME280;3038;51.122;6.840;2023-04-15T07:45:39;100676.88;;;11.99;59.26
6020;BME280;3038;51.122;6.840;2023-04-15T07:48:05;100683.56;;;11.95;59.85
6020;BME280;3038;51.122;6.840;2023-04-15T07:50:31;100676.25;;;11.80;59.75
6020;BME280;3038;51.122;6.840;2023-04-15T07:52:56;100689.56;;;11.80;59.85
6020;BME280;3038;51.122;6.840;2023-04-15T07:55:21;100693.88;;;11.65;60.24
6020;BME280;3038;51.122;6.840;2023-04-15T07:57:48;100697.06;;;11.61;60.84
6020;BME280;3038;51.122;6.840;2023-04-15T08:00:14;100701.34;;;11.70;60.37
6020;BME280;3038;51.122;6.840;2023-04-15T08:02:40;100702.84;;;11.80;60.00
6020;BME280;3038;51.122;6.840;2023-04-15T08:05:09;100702.53;;;12.00;59.71
6020;BME280;3038;51.122;6.840;2023-04-15T08:07:38;100706.47;;;12.12;58.90
6020;BME280;3038;51.122;6.840;2023-04-15T08:10:04;100706.16;;;12.07;59.59
6020;BME280;3038;51.122;6.840;2023-04-15T08:12:30;100708.81;;;12.07;58.60
6020;BME280;3038;51.122;6.840;2023-04-15T08:14:55;100711.78;;;12.20;58.88
6020;BME280;3038;51.122;6.840;2023-04-15T08:17:24;100715.38;;;12.35;57.87
6020;BME280;3038;51.122;6.840;2023-04-15T08:19:49;100721.81;;;12.57;58.71
6020;BME280;3038;51.122;6.840;2023-04-15T08:22:14;100708.59;;;12.72;57.39
6020;BME280;3038;51.122;6.840;2023-04-15T08:24:43;100722.97;;;12.55;55.73
6020;BME280;3038;51.122;6.840;2023-04-15T08:27:08;100727.38;;;12.31;56.42
6020;BME280;3038;51.122;6.840;2023-04-15T08:29:36;100728.00;;;12.42;56.71
6020;BME280;3038;51.122;6.840;2023-04-15T08:32:02;100735.28;;;12.56;55.52
6020;BME280;3038;51.122;6.840;2023-04-15T08:34:28;100738.75;;;12.65;55.65
6020;BME280;3038;51.122;6.840;2023-04-15T08:36:54;100726.34;;;12.80;54.75
6020;BME280;3038;51.122;6.840;2023-04-15T08:39:19;100731.78;;;12.95;55.60
6020;BME280;3038;51.122;6.840;2023-04-15T08:41:50;100730.09;;;13.02;55.12
6020;BME280;3038;51.122;6.840;2023-04-15T08:44:16;100735.06;;;13.05;55.20
6020;BME280;3038;51.122;6.840;2023-04-15T08:46:42;100743.03;;;13.05;54.56
6020;BME280;3038;51.122;6.840;2023-04-15T08:49:12;100740.13;;;12.92;54.57
6020;BME280;3038;51.122;6.840;2023-04-15T08:51:40;100748.50;;;12.80;55.24
6020;BME280;3038;51.122;6.840;2023-04-15T08:54:07;100748.88;;;12.77;54.41
6020;BME280;3038;51.122;6.840;2023-04-15T08:56:33;100755.66;;;12.80;55.05
6020;BME280;3038;51.122;6.840;2023-04-15T08:58:58;100758.00;;;12.83;55.60
6020;BME280;3038;51.122;6.840;2023-04-15T09:01:24;100761.19;;;12.78;56.04
6020;BME280;3038;51.122;6.840;2023-04-15T09:03:51;100762.75;;;12.96;56.27
6020;BME280;3038;51.122;6.840;2023-04-15T09:06:19;100748.44;;;12.97;55.79
6020;BME280;3038;51.122;6.840;2023-04-15T09:08:45;100755.25;;;12.99;55.77
6020;BME280;3038;51.122;6.840;2023-04-15T09:11:10;100764.59;;;12.95;55.24
6020;BME280;3038;51.122;6.840;2023-04-15T09:13:36;100763.75;;;12.95;55.40
6020;BME280;3038;51.122;6.840;2023-04-15T09:16:04;100774.25;;;12.96;55.99
6020;BME280;3038;51.122;6.840;2023-04-15T09:18:31;100762.34;;;13.15;55.25
6020;BME280;3038;51.122;6.840;2023-04-15T09:21:13;100773.13;;;13.30;54.50
6020;BME280;3038;51.122;6.840;2023-04-15T09:23:56;100772.16;;;13.46;54.50
6020;BME280;3038;51.122;6.840;2023-04-15T09:26:36;100772.03;;;13.62;53.36
6020;BME280;3038;51.122;6.840;2023-04-15T09:29:06;100779.75;;;13.57;54.80
6020;BME280;3038;51.122;6.840;2023-04-15T09:31:32;100776.06;;;13.58;53.29
6020;BME280;3038;51.122;6.840;2023-04-15T09:33:58;100776.34;;;13.63;54.15
6020;BME280;3038;51.122;6.840;2023-04-15T09:36:23;100777.97;;;13.72;53.26
6020;BME280;3038;51.122;6.840;2023-04-15T09:38:58;100782.19;;;13.67;54.07
6020;BME280;3038;51.122;6.840;2023-04-15T09:41:25;100787.13;;;13.55;52.79
6020;BME280;3038;51.122;6.840;2023-04-15T09:43:51;100791.69;;;13.69;54.09
6020;BME280;3038;51.122;6.840;2023-04-15T09:46:16;100784.16;;;13.87;52.26
6020;BME280;3038;51.122;6.840;2023-04-15T09:48:42;100793.06;;;14.03;52.39
6020;BME280;3038;51.122;6.840;2023-04-15T09:51:07;100800.72;;;14.21;52.12
6020;BME280;3038;51.122;6.840;2023-04-15T09:53:34;100802.56;;;14.20;52.11
6020;BME280;3038;51.122;6.840;2023-04-15T09:56:01;100804.97;;;14.30;51.54
6020;BME280;3038;51.122;6.840;2023-04-15T09:58:27;100802.41;;;14.22;51.44
6020;BME280;3038;51.122;6.840;2023-04-15T10:00:54;100797.13;;;14.13;51.03
6020;BME280;3038;51.122;6.840;2023-04-15T10:03:25;100803.81;;;14.32;50.71
6020;BME280;3038;51.122;6.840;2023-04-15T10:05:52;100810.28;;;14.82;51.14
6020;BME280;3038;51.122;6.840;2023-04-15T10:08:20;100804.09;;;14.97;49.72
6020;BME280;3038;51.122;6.840;2023-04-15T10:10:47;100805.78;;;14.83;49.53
6020;BME280;3038;51.122;6.840;2023-04-15T10:13:16;100817.22;;;14.62;49.87
6020;BME280;3038;51.122;6.840;2023-04-15T10:15:49;100817.22;;;14.77;50.55
6020;BME280;3038;51.122;6.840;2023-04-15T10:18:18;100812.94;;;15.12;50.06
6020;BME280;3038;51.122;6.840;2023-04-15T10:20:45;100825.03;;;14.63;50.01
6020;BME280;3038;51.122;6.840;2023-04-15T10:23:12;100817.25;;;15.13;49.07
6020;BME280;3038;51.122;6.840;2023-04-15T10:25:38;100826.97;;;14.99;49.91
6020;BME280;3038;51.122;6.840;2023-04-15T10:28:05;100823.94;;;14.87;49.38
6020;BME280;3038;51.122;6.840;2023-04-15T10:30:32;100820.28;;;15.25;49.06
6020;BME280;3038;51.122;6.840;2023-04-15T10:32:58;100820.06;;;15.41;48.95
6020;BME280;3038;51.122;6.840;2023-04-15T10:35:24;100833.84;;;15.38;49.07
6020;BME280;3038;51.122;6.840;2023-04-15T10:37:50;100824.25;;;15.29;49.39
6020;BME280;3038;51.122;6.840;2023-04-15T10:40:26;100829.88;;;15.70;48.40
6020;BME280;3038;51.122;6.840;2023-04-15T10:42:54;100831.47;;;16.07;47.44
6020;BME280;3038;51.122;6.840;2023-04-15T10:45:20;100831.09;;;15.89;47.88
6020;BME280;3038;51.122;6.840;2023-04-15T10:47:51;100839.25;;;15.45;49.05
6020;BME280;3038;51.122;6.840;2023-04-15T10:50:18;100840.69;;;15.11;48.86
6020;BME280;3038;51.122;6.840;2023-04-15T10:52:44;100839.91;;;14.66;50.45
6020;BME280;3038;51.122;6.840;2023-04-15T10:57:37;100837.34;;;15.96;46.75
6020;BME280;3038;51.122;6.840;2023-04-15T11:00:17;100846.22;;;15.24;49.75
6020;BME280;3038;51.122;6.840;2023-04-15T11:02:53;100846.19;;;15.75;49.06
6020;BME280;3038;51.122;6.840;2023-04-15T11:08:08;100847.09;;;14.95;50.56
6020;BME280;3038;51.122;6.840;2023-04-15T11:13:01;100851.78;;;14.78;51.41
6020;BME280;3038;51.122;6.840;2023-04-15T11:15:37;100853.03;;;14.15;52.93
6020;BME280;3038;51.122;6.840;2023-04-15T11:18:10;100856.22;;;14.10;54.39
6020;BME280;3038;51.122;6.840;2023-04-15T11:20:37;100857.56;;;14.29;54.50
6020;BME280;3038;51.122;6.840;2023-04-15T11:23:04;100861.75;;;14.32;53.56
6020;BME280;3038;51.122;6.840;2023-04-15T11:25:33;100858.56;;;14.13;54.09
6020;BME280;3038;51.122;6.840;2023-04-15T11:28:00;100874.81;;;14.04;54.19
6020;BME280;3038;51.122;6.840;2023-04-15T11:30:28;100868.97;;;14.23;54.46
6020;BME280;3038;51.122;6.840;2023-04-15T11:32:57;100869.66;;;14.63;53.26
6020;BME280;3038;51.122;6.840;2023-04-15T11:35:23;100878.41;;;14.72;52.99
6020;BME280;3038;51.122;6.840;2023-04-15T11:37:51;100874.72;;;14.58;53.54
6020;BME280;3038;51.122;6.840;2023-04-15T11:40:22;100878.94;;;14.06;54.04
6020;BME280;3038;51.122;6.840;2023-04-15T11:43:11;100887.16;;;14.51;53.26
6020;BME280;3038;51.122;6.840;2023-04-15T11:45:56;100885.88;;;15.06;52.43
6020;BME280;3038;51.122;6.840;2023-04-15T11:48:23;100884.94;;;14.99;52.17
6020;BME280;3038;51.122;6.840;2023-04-15T11:53:36;100882.81;;;14.79;52.27
6020;BME280;3038;51.122;6.840;2023-04-15T11:56:01;100884.31;;;16.20;48.98
6020;BME280;3038;51.122;6.840;2023-04-15T11:58:28;100879.63;;;15.64;50.35
6020;BME280;3038;51.122;6.840;2023-04-15T12:00:57;100905.88;;;14.65;52.96
6020;BME280;3038;51.122;6.840;2023-04-15T12:03:26;100900.06;;;14.16;54.75
6020;BME280;3038;51.122;6.840;2023-04-15T12:13:47;100919.59;;;13.31;57.43
6020;BME280;3038;51.122;6.840;2023-04-15T12:16:18;100933.16;;;13.05;57.61
6020;BME280;3038;51.122;6.840;2023-04-15T12:18:46;100942.19;;;12.88;58.09
6020;BME280;3038;51.122;6.840;2023-04-15T12:21:14;100938.34;;;12.74;58.20
6020;BME280;3038;51.122;6.840;2023-04-15T12:23:47;100940.69;;;12.77;58.96
6020;BME280;3038;51.122;6.840;2023-04-15T12:26:14;100937.38;;;12.67;58.83
6020;BME280;3038;51.122;6.840;2023-04-15T12:28:40;100946.19;;;12.51;59.58
6020;BME280;3038;51.122;6.840;2023-04-15T12:31:10;100953.03;;;12.46;59.93
6020;BME280;3038;51.122;6.840;2023-04-15T12:33:38;100955.66;;;12.38;59.58
6020;BME280;3038;51.122;6.840;2023-04-15T12:36:04;100959.03;;;12.23;59.91
6020;BME280;3038;51.122;6.840;2023-04-15T12:38:29;100961.31;;;12.18;60.95
6020;BME280;3038;51.122;6.840;2023-04-15T12:40:57;100961.97;;;12.12;61.63
6020;BME280;3038;51.122;6.840;2023-04-15T12:43:22;100968.28;;;12.03;60.94
6020;BME280;3038;51.122;6.840;2023-04-15T12:45:48;100975.78;;;12.16;61.55
6020;BME280;3038;51.122;6.840;2023-04-15T12:48:13;100978.47;;;12.24;60.51
6020;BME280;3038;51.122;6.840;2023-04-15T12:50:40;100977.13;;;12.20;60.64
6020;BME280;3038;51.122;6.840;2023-04-15T12:53:06;100980.78;;;12.27;60.63
6020;BME280;3038;51.122;6.840;2023-04-15T12:55:31;100971.66;;;12.21;59.71
6020;BME280;3038;51.122;6.840;2023-04-15T12:57:57;100991.63;;;12.25;60.88
6020;BME280;3038;51.122;6.840;2023-04-15T13:00:22;100985.81;;;12.30;60.16
6020;BME280;3038;51.122;6.840;2023-04-15T13:02:48;100994.09;;;12.27;60.64
6020;BME280;3038;51.122;6.840;2023-04-15T13:05:13;101006.78;;;12.33;60.66
6020;BME280;3038;51.122;6.840;2023-04-15T13:07:40;101012.94;;;12.33;60.31
6020;BME280;3038;51.122;6.840;2023-04-15T13:10:06;101011.91;;;12.26;60.23
6020;BME280;3038;51.122;6.840;2023-04-15T13:12:32;101017.22;;;12.18;60.84
6020;BME280;3038;51.122;6.840;2023-04-15T13:15:01;101016.22;;;12.11;61.24
6020;BME280;3038;51.122;6.840;2023-04-15T13:17:26;101024.34;;;12.01;61.83
6020;BME280;3038;51.122;6.840;2023-04-15T13:19:54;101030.78;;;11.99;62.06
6020;BME280;3038;51.122;6.840;2023-04-15T13:22:19;101031.94;;;11.88;62.35
6020;BME280;3038;51.122;6.840;2023-04-15T13:24:45;101036.91;;;11.83;62.64
6020;BME280;3038;51.122;6.840;2023-04-15T13:27:10;101038.66;;;11.74;63.40
6020;BME280;3038;51.122;6.840;2023-04-15T13:29:35;101042.19;;;11.75;63.33
6020;BME280;3038;51.122;6.840;2023-04-15T13:32:01;101038.63;;;11.66;63.63
6020;BME280;3038;51.122;6.840;2023-04-15T13:34:26;101045.25;;;11.62;64.02
6020;BME280;3038;51.122;6.840;2023-04-15T13:36:52;101038.28;;;11.61;63.37
6020;BME280;3038;51.122;6.840;2023-04-15T13:39:17;101055.91;;;11.62;63.64
6020;BME280;3038;51.122;6.840;2023-04-15T13:41:42;101055.56;;;11.65;63.66
6020;BME280;3038;51.122;6.840;2023-04-15T13:44:08;101058.09;;;11.67;63.60
6020;BME280;3038;51.122;6.840;2023-04-15T13:46:33;101051.28;;;11.72;63.55
6020;BME280;3038;51.122;6.840;2023-04-15T13:48:58;101061.41;;;11.69;63.78
6020;BME280;3038;51.122;6.840;2023-04-15T13:51:24;101063.59;;;11.73;64.07
6020;BME280;3038;51.122;6.840;2023-04-15T13:53:51;101062.94;;;11.79;63.30
6020;BME280;3038;51.122;6.840;2023-04-15T13:56:16;101061.69;;;11.83;63.06
6020;BME280;3038;51.122;6.840;2023-04-15T13:58:44;101065.91;;;11.94;63.29
6020;BME280;3038;51.122;6.840;2023-04-15T14:01:09;101072.06;;;11.95;63.27
6020;BME280;3038;51.122;6.840;2023-04-15T14:03:35;101065.22;;;11.92;63.33
6020;BME280;3038;51.122;6.840;2023-04-15T14:06:00;101085.84;;;11.90;64.03
6020;BME280;3038;51.122;6.840;2023-04-15T14:08:25;101079.00;;;11.88;64.18
6020;BME280;3038;51.122;6.840;2023-04-15T14:10:51;101078.19;;;11.69;63.81
6020;BME280;3038;51.122;6.840;2023-04-15T14:13:16;101089.75;;;11.52;64.08
6020;BME280;3038;51.122;6.840;2023-04-15T14:15:43;101098.03;;;11.49;63.91
6020;BME280;3038;51.122;6.840;2023-04-15T14:18:09;101092.72;;;11.49;63.88
6020;BME280;3038;51.122;6.840;2023-04-15T14:20:34;101091.72;;;11.50;64.29
6020;BME280;3038;51.122;6.840;2023-04-15T14:22:59;101090.41;;;11.54;64.00
6020;BME280;3038;51.122;6.840;2023-04-15T14:25:25;101090.47;;;11.62;63.77
6020;BME280;3038;51.122;6.840;2023-04-15T14:27:51;101099.91;;;11.82;63.21
6020;BME280;3038;51.122;6.840;2023-04-15T14:30:16;101102.69;;;12.07;63.03
6020;BME280;3038;51.122;6.840;2023-04-15T14:32:41;101100.47;;;12.28;61.88
6020;BME280;3038;51.122;6.840;2023-04-15T14:35:10;101094.81;;;12.40;61.79
6020;BME280;3038;51.122;6.840;2023-04-15T14:37:37;101099.03;;;12.67;61.47
6020;BME280;3038;51.122;6.840;2023-04-15T14:40:03;101094.56;;;12.83;60.40
6020;BME280;3038;51.122;6.840;2023-04-15T14:42:28;101098.56;;;12.96;60.16
6020;BME280;3038;51.122;6.840;2023-04-15T14:44:54;101103.56;;;13.07;59.66
6020;BME280;3038;51.122;6.840;2023-04-15T14:47:19;101109.06;;;12.97;59.21
6020;BME280;3038;51.122;6.840;2023-04-15T14:49:50;101117.22;;;12.96;59.56
6020;BME280;3038;51.122;6.840;2023-04-15T14:52:17;101114.19;;;12.74;60.18
6020;BME280;3038;51.122;6.840;2023-04-15T14:54:43;101116.13;;;12.40;61.66
6020;BME280;3038;51.122;6.840;2023-04-15T14:57:08;101136.75;;;12.38;61.57
6020;BME280;3038;51.122;6.840;2023-04-15T14:59:33;101118.75;;;12.23;62.40
6020;BME280;3038;51.122;6.840;2023-04-15T15:02:01;101127.69;;;12.14;63.51
6020;BME280;3038;51.122;6.840;2023-04-15T15:04:26;101131.66;;;12.10;63.81
6020;BME280;3038;51.122;6.840;2023-04-15T15:06:53;101136.81;;;12.12;63.87
6020;BME280;3038;51.122;6.840;2023-04-15T15:09:21;101138.69;;;12.19;65.19
6020;BME280;3038;51.122;6.840;2023-04-15T15:11:48;101132.00;;;12.15;64.33
6020;BME280;3038;51.122;6.840;2023-04-15T15:14:13;101138.94;;;12.00;64.73
6020;BME280;3038;51.122;6.840;2023-04-15T15:16:42;101139.44;;;11.77;65.50
6020;BME280;3038;51.122;6.840;2023-04-15T15:19:10;101146.09;;;11.55;66.72
6020;BME280;3038;51.122;6.840;2023-04-15T15:21:35;101156.53;;;11.49;67.03
6020;BME280;3038;51.122;6.840;2023-04-15T15:24:01;101158.66;;;11.45;67.55
6020;BME280;3038;51.122;6.840;2023-04-15T15:26:27;101153.28;;;11.37;68.38
6020;BME280;3038;51.122;6.840;2023-04-15T15:28:52;101152.75;;;11.33;69.08
6020;BME280;3038;51.122;6.840;2023-04-15T15:31:18;101170.16;;;11.28;68.63
6020;BME280;3038;51.122;6.840;2023-04-15T15:33:43;101164.84;;;11.28;69.09
6020;BME280;3038;51.122;6.840;2023-04-15T15:36:09;101170.47;;;11.25;69.82
6020;BME280;3038;51.122;6.840;2023-04-15T15:38:35;101172.13;;;11.26;69.59
6020;BME280;3038;51.122;6.840;2023-04-15T15:41:01;101186.19;;;11.18;70.50
6020;BME280;3038;51.122;6.840;2023-04-15T15:43:26;101175.94;;;11.05;71.09
6020;BME280;3038;51.122;6.840;2023-04-15T15:45:51;101181.63;;;10.93;70.90
6020;BME280;3038;51.122;6.840;2023-04-15T15:48:26;101182.53;;;10.84;71.63
6020;BME280;3038;51.122;6.840;2023-04-15T15:50:52;101195.72;;;10.75;72.01
6020;BME280;3038;51.122;6.840;2023-04-15T15:53:17;101191.00;;;10.69;72.36
6020;BME280;3038;51.122;6.840;2023-04-15T15:55:47;101186.59;;;10.60;72.63
6020;BME280;3038;51.122;6.840;2023-04-15T15:58:13;101198.31;;;10.58;73.92
6020;BME280;3038;51.122;6.840;2023-04-15T16:00:38;101197.94;;;10.52;73.20
6020;BME280;3038;51.122;6.840;2023-04-15T16:03:04;101202.25;;;10.53;73.45
6020;BME280;3038;51.122;6.840;2023-04-15T16:05:29;101199.75;;;10.52;73.26
6020;BME280;3038;51.122;6.840;2023-04-15T16:07:55;101211.81;;;10.46;73.09
6020;BME280;3038;51.122;6.840;2023-04-15T16:10:20;101214.06;;;10.41;73.82
6020;BME280;3038;51.122;6.840;2023-04-15T16:12:46;101212.84;;;10.36;74.59
6020;BME280;3038;51.122;6.840;2023-04-15T16:15:11;101220.81;;;10.36;74.27
6020;BME280;3038;51.122;6.840;2023-04-15T16:17:36;101225.41;;;10.34;74.38
6020;BME280;3038;51.122;6.840;2023-04-15T16:20:02;101225.00;;;10.28;74.89
6020;BME280;3038;51.122;6.840;2023-04-15T16:22:30;101229.31;;;10.29;75.30
6020;BME280;3038;51.122;6.840;2023-04-15T16:24:56;101240.66;;;10.32;75.08
6020;BME280;3038;51.122;6.840;2023-04-15T16:27:24;101233.25;;;10.35;75.26
6020;BME280;3038;51.122;6.840;2023-04-15T16:29:52;101241.44;;;10.42;75.48
6020;BME280;3038;51.122;6.840;2023-04-15T16:32:18;101243.66;;;10.46;75.04
6020;BME280;3038;51.122;6.840;2023-04-15T16:34:43;101241.44;;;10.42;74.50
6020;BME280;3038;51.122;6.840;2023-04-15T16:37:11;101241.59;;;10.40;74.50
6020;BME280;3038;51.122;6.840;2023-04-15T16:39:37;101248.44;;;10.43;75.22
6020;BME280;3038;51.122;6.840;2023-04-15T16:42:02;101250.41;;;10.41;75.07
6020;BME280;3038;51.122;6.840;2023-04-15T16:44:30;101252.34;;;10.39;75.48
6020;BME280;3038;51.122;6.840;2023-04-15T16:46:55;101257.13;;;10.35;75.63
6020;BME280;3038;51.122;6.840;2023-04-15T16:49:20;101259.66;;;10.27;75.53
6020;BME280;3038;51.122;6.840;2023-04-15T16:51:46;101263.31;;;10.26;75.54
6020;BME280;3038;51.122;6.840;2023-04-15T16:54:13;101256.56;;;10.32;75.59
6020;BME280;3038;51.122;6.840;2023-04-15T16:56:41;101264.97;;;10.27;74.58
6020;BME280;3038;51.122;6.840;2023-04-15T16:59:06;101261.06;;;10.21;74.57
6020;BME280;3038;51.122;6.840;2023-04-15T17:01:32;101268.72;;;10.24;74.44
6020;BME280;3038;51.122;6.840;2023-04-15T17:03:57;101271.13;;;10.27;74.02
6020;BME280;3038;51.122;6.840;2023-04-15T17:06:22;101271.25;;;10.26;74.45
6020;BME280;3038;51.122;6.840;2023-04-15T17:08:48;101271.38;;;10.24;73.88
6020;BME280;3038;51.122;6.840;2023-04-15T17:11:13;101271.13;;;10.27;74.13
6020;BME280;3038;51.122;6.840;2023-04-15T17:13:39;101272.09;;;10.26;73.99
6020;BME280;3038;51.122;6.840;2023-04-15T17:16:05;101276.69;;;10.24;74.58
6020;BME280;3038;51.122;6.840;2023-04-15T17:18:33;101276.69;;;10.24;74.61
6020;BME280;3038;51.122;6.840;2023-04-15T17:20:58;101285.63;;;10.23;74.42
6020;BME280;3038;51.122;6.840;2023-04-15T17:23:24;101289.25;;;10.22;74.88
6020;BME280;3038;51.122;6.840;2023-04-15T17:25:51;101288.69;;;10.19;74.65
6020;BME280;3038;51.122;6.840;2023-04-15T17:28:16;101292.50;;;10.16;73.72
6020;BME280;3038;51.122;6.840;2023-04-15T17:30:42;101299.06;;;10.12;74.09
6020;BME280;3038;51.122;6.840;2023-04-15T17:33:07;101300.03;;;10.11;74.84
6020;BME280;3038;51.122;6.840;2023-04-15T17:35:33;101298.66;;;10.07;74.79
6020;BME280;3038;51.122;6.840;2023-04-15T17:37:58;101306.88;;;10.04;74.83
6020;BME280;3038;51.122;6.840;2023-04-15T17:40:24;101310.38;;;10.04;74.99
6020;BME280;3038;51.122;6.840;2023-04-15T17:42:49;101315.56;;;10.06;75.24
6020;BME280;3038;51.122;6.840;2023-04-15T17:45:14;101319.47;;;10.02;75.50
6020;BME280;3038;51.122;6.840;2023-04-15T17:47:40;101325.31;;;9.96;75.83
6020;BME280;3038;51.122;6.840;2023-04-15T17:50:06;101317.25;;;9.88;75.55
6020;BME280;3038;51.122;6.840;2023-04-15T17:52:34;101332.16;;;9.89;75.81
6020;BME280;3038;51.122;6.840;2023-04-15T17:55:03;101330.78;;;9.85;76.34
6020;BME280;3038;51.122;6.840;2023-04-15T17:57:28;101330.09;;;9.83;75.85
6020;BME280;3038;51.122;6.840;2023-04-15T17:59:56;101332.84;;;9.81;76.15
6020;BME280;3038;51.122;6.840;2023-04-15T18:02:24;101337.47;;;9.79;76.11
6020;BME280;3038;51.122;6.840;2023-04-15T18:04:49;101345.44;;;9.79;77.22
6020;BME280;3038;51.122;6.840;2023-04-15T18:07:15;101351.28;;;9.63;77.90
6020;BME280;3038;51.122;6.840;2023-04-15T18:09:40;101353.53;;;9.58;78.09
6020;BME280;3038;51.122;6.840;2023-04-15T18:12:08;101364.13;;;9.58;79.72
6020;BME280;3038;51.122;6.840;2023-04-15T18:14:34;101357.13;;;9.57;78.63
6020;BME280;3038;51.122;6.840;2023-04-15T18:17:00;101362.97;;;9.51;79.44
6020;BME280;3038;51.122;6.840;2023-04-15T18:19:26;101371.91;;;9.40;80.10
6020;BME280;3038;51.122;6.840;2023-04-15T18:21:51;101369.91;;;9.33;81.65
6020;BME280;3038;51.122;6.840;2023-04-15T18:24:17;101379.69;;;9.32;81.57
6020;BME280;3038;51.122;6.840;2023-04-15T18:26:42;101380.81;;;9.30;81.90
6020;BME280;3038;51.122;6.840;2023-04-15T18:29:09;101380.81;;;9.30;82.73
6020;BME280;3038;51.122;6.840;2023-04-15T18:31:34;101384.44;;;9.29;83.40
6020;BME280;3038;51.122;6.840;2023-04-15T18:34:00;101393.63;;;9.24;83.30
6020;BME280;3038;51.122;6.840;2023-04-15T18:36:29;101407.25;;;9.20;84.05
6020;BME280;3038;51.122;6.840;2023-04-15T18:38:55;101411.41;;;9.13;84.38
6020;BME280;3038;51.122;6.840;2023-04-15T18:41:20;101405.38;;;9.01;85.39
6020;BME280;3038;51.122;6.840;2023-04-15T18:43:46;101417.88;;;8.99;86.12
6020;BME280;3038;51.122;6.840;2023-04-15T18:46:11;101410.91;;;8.98;86.56
6020;BME280;3038;51.122;6.840;2023-04-15T18:48:37;101418.88;;;8.98;86.14
6020;BME280;3038;51.122;6.840;2023-04-15T18:51:02;101419.16;;;8.95;85.99
6020;BME280;3038;51.122;6.840;2023-04-15T18:53:28;101426.66;;;8.90;86.88
6020;BME280;3038;51.122;6.840;2023-04-15T18:55:53;101428.44;;;8.89;87.18
6020;BME280;3038;51.122;6.840;2023-04-15T18:58:20;101426.19;;;8.85;86.84
6020;BME280;3038;51.122;6.840;2023-04-15T19:00:46;101430.25;;;8.89;87.76
6020;BME280;3038;51.122;6.840;2023-04-15T19:03:11;101437.50;;;8.87;87.49
6020;BME280;3038;51.122;6.840;2023-04-15T19:05:44;101437.25;;;8.90;87.61
6020;BME280;3038;51.122;6.840;2023-04-15T19:08:09;101445.88;;;8.92;87.76
6020;BME280;3038;51.122;6.840;2023-04-15T19:10:35;101452.16;;;8.91;88.19
6020;BME280;3038;51.122;6.840;2023-04-15T19:13:01;101449.19;;;8.84;87.27
6020;BME280;3038;51.122;6.840;2023-04-15T19:15:28;101453.63;;;8.84;88.01
6020;BME280;3038;51.122;6.840;2023-04-15T19:17:53;101455.31;;;8.85;87.36
6020;BME280;3038;51.122;6.840;2023-04-15T19:20:18;101471.72;;;8.79;87.69
6020;BME280;3038;51.122;6.840;2023-04-15T19:22:44;101475.59;;;8.74;87.99
6020;BME280;3038;51.122;6.840;2023-04-15T19:25:12;101477.16;;;8.77;88.15
6020;BME280;3038;51.122;6.840;2023-04-15T19:27:37;101474.75;;;8.74;88.23
6020;BME280;3038;51.122;6.840;2023-04-15T19:30:05;101480.63;;;8.78;87.96
6020;BME280;3038;51.122;6.840;2023-04-15T19:32:30;101484.38;;;8.75;88.24
6020;BME280;3038;51.122;6.840;2023-04-15T19:34:56;101487.88;;;8.75;87.78
6020;BME280;3038;51.122;6.840;2023-04-15T19:37:21;101485.47;;;8.72;88.40
6020;BME280;3038;51.122;6.840;2023-04-15T19:39:46;101488.13;;;8.72;88.29
6020;BME280;3038;51.122;6.840;2023-04-15T19:42:12;101492.59;;;8.72;88.87
6020;BME280;3038;51.122;6.840;2023-04-15T19:44:37;101490.91;;;8.71;89.01
6020;BME280;3038;51.122;6.840;2023-04-15T19:47:09;101497.75;;;8.73;88.13
6020;BME280;3038;51.122;6.840;2023-04-15T19:49:35;101500.09;;;8.67;88.96
6020;BME280;3038;51.122;6.840;2023-04-15T19:52:00;101505.03;;;8.60;89.20
6020;BME280;3038;51.122;6.840;2023-04-15T19:54:26;101507.56;;;8.62;89.24
6020;BME280;3038;51.122;6.840;2023-04-15T19:56:53;101498.41;;;8.66;88.84
6020;BME280;3038;51.122;6.840;2023-04-15T19:59:19;101505.75;;;8.62;88.97
6020;BME280;3038;51.122;6.840;2023-04-15T20:01:49;101511.75;;;8.64;88.63
6020;BME280;3038;51.122;6.840;2023-04-15T20:04:14;101508.41;;;8.62;88.87
6020;BME280;3038;51.122;6.840;2023-04-15T20:06:40;101510.06;;;8.63;89.41
6020;BME280;3038;51.122;6.840;2023-04-15T20:09:07;101513.56;;;8.64;89.64
6020;BME280;3038;51.122;6.840;2023-04-15T20:11:33;101522.34;;;8.64;89.40
6020;BME280;3038;51.122;6.840;2023-04-15T20:13:58;101520.41;;;8.66;89.46
6020;BME280;3038;51.122;6.840;2023-04-15T20:16:25;101521.38;;;8.65;89.01
6020;BME280;3038;51.122;6.840;2023-04-15T20:18:51;101525.97;;;8.63;89.29
6020;BME280;3038;51.122;6.840;2023-04-15T20:21:16;101527.31;;;8.58;89.46
6020;BME280;3038;51.122;6.840;2023-04-15T20:23:42;101525.50;;;8.58;89.66
6020;BME280;3038;51.122;6.840;2023-04-15T20:26:07;101533.44;;;8.58;89.81
6020;BME280;3038;51.122;6.840;2023-04-15T20:28:33;101529.59;;;8.62;89.75
6020;BME280;3038;51.122;6.840;2023-04-15T20:31:02;101528.16;;;8.58;90.51
6020;BME280;3038;51.122;6.840;2023-04-15T20:33:27;101531.78;;;8.57;90.29
6020;BME280;3038;51.122;6.840;2023-04-15T20:35:53;101534.41;;;8.57;90.07
6020;BME280;3038;51.122;6.840;2023-04-15T20:38:19;101531.50;;;8.60;90.03
6020;BME280;3038;51.122;6.840;2023-04-15T20:40:45;101535.25;;;8.58;90.01
6020;BME280;3038;51.122;6.840;2023-04-15T20:43:10;101536.34;;;8.55;89.87
6020;BME280;3038;51.122;6.840;2023-04-15T20:45:36;101529.41;;;8.43;90.64
6020;BME280;3038;51.122;6.840;2023-04-15T20:48:02;101536.13;;;8.36;91.09
6020;BME280;3038;51.122;6.840;2023-04-15T20:50:27;101538.56;;;8.39;92.08
6020;BME280;3038;51.122;6.840;2023-04-15T20:52:53;101538.56;;;8.39;92.12
6020;BME280;3038;51.122;6.840;2023-04-15T20:55:18;101534.72;;;8.43;91.43
6020;BME280;3038;51.122;6.840;2023-04-15T20:57:44;101542.28;;;8.47;91.84
6020;BME280;3038;51.122;6.840;2023-04-15T21:00:09;101533.97;;;8.52;91.64
6020;BME280;3038;51.122;6.840;2023-04-15T21:02:35;101534.53;;;8.56;91.11
6020;BME280;3038;51.122;6.840;2023-04-15T21:05:01;101543.06;;;8.59;91.29
6020;BME280;3038;51.122;6.840;2023-04-15T21:07:26;101545.47;;;8.62;91.20
6020;BME280;3038;51.122;6.840;2023-04-15T21:09:54;101540.16;;;8.62;91.08